sensor_id;sensor_type;location;lat;lon;timestamp;temperature;humidity
20070;DHT22;10195;50.868;4.382;2023-03-14T00:00:14;12.30;99.90
20070;DHT22;10195;50.868;4.382;2023-03-14T00:02:40;12.30;99.90
20070;DHT22;10195;50.868;4.382;2023-03-14T00:05:06;12.30;99.90
20070;DHT22;10195;50.868;4.382;2023-03-14T00:07:36;12.30;99.90
20070;DHT22;10195;50.868;4.382;2023-03-14T00:10:04;12.20;99.90
20070;DHT22;10195;50.868;4.382;2023-03-14T00:12:31;12.10;99.90
20070;DHT22;10195;50.868;4.382;2023-03-14T00:14:57;12.00;99.90
20070;DHT22;10195;50.868;4.382;2023-03-14T00:17:23;11.90;99.90
20070;DHT22;10195;50.868;4.382;2023-03-14T00:19:48;11.90;99.90
20070;DHT22;10195;50.868;4.382;2023-03-14T00:22:17;11.90;99.90
20070;DHT22;10195;50.868;4.382;2023-03-14T00:24:43;11.80;99.90
20070;DHT22;10195;50.868;4.382;2023-03-14T00:27:09;11.70;99.90
20070;DHT22;10195;50.868;4.382;2023-03-14T00:29:34;11.70;99.90
20070;DHT22;10195;50.868;4.382;2023-03-14T00:32:00;11.80;99.90
20070;DHT22;10195;50.868;4.382;2023-03-14T00:34:29;11.70;99.90
20070;DHT22;10195;50.868;4.382;2023-03-14T00:36:55;11.70;99.90
20070;DHT22;10195;50.868;4.382;2023-03-14T00:39:20;11.70;99.90
20070;DHT22;10195;50.868;4.382;2023-03-14T00:41:46;11.60;99.90
20070;DHT22;10195;50.868;4.382;2023-03-14T00:44:12;11.60;99.90
20070;DHT22;10195;50.868;4.382;2023-03-14T00:46:38;11.60;99.90
20070;DHT22;10195;50.868;4.382;2023-03-14T00:49:04;11.70;99.90
20070;DHT22;10195;50.868;4.382;2023-03-14T00:51:30;11.70;99.90
20070;DHT22;10195;50.868;4.382;2023-03-14T00:53:55;11.70;99.90
20070;DHT22;10195;50.868;4.382;2023-03-14T00:56:21;11.70;99.90
20070;DHT22;10195;50.868;4.382;2023-03-14T00:58:46;11.90;99.90
20070;DHT22;10195;50.868;4.382;2023-03-14T01:01:15;11.90;99.90
20070;DHT22;10195;50.868;4.382;2023-03-14T01:03:42;11.80;99.90
20070;DHT22;10195;50.868;4.382;2023-03-14T01:08:34;11.80;99.90
20070;DHT22;10195;50.868;4.382;2023-03-14T01:11:04;11.70;99.90
20070;DHT22;10195;50.868;4.382;2023-03-14T01:13:30;11.60;99.90
20070;DHT22;10195;50.868;4.382;2023-03-14T01:15:55;11.60;99.90
20070;DHT22;10195;50.868;4.382;2023-03-14T01:18:25;11.70;99.90
20070;DHT22;10195;50.868;4.382;2023-03-14T01:20:51;11.70;99.90
20070;DHT22;10195;50.868;4.382;2023-03-14T01:23:17;11.60;99.90
20070;DHT22;10195;50.868;4.382;2023-03-14T01:25:42;11.60;99.90
20070;DHT22;10195;50.868;4.382;2023-03-14T01:28:08;11.70;99.90
20070;DHT22;10195;50.868;4.382;2023-03-14T01:30:33;11.70;99.90
20070;DHT22;10195;50.868;4.382;2023-03-14T01:32:59;11.50;99.90
20070;DHT22;10195;50.868;4.382;2023-03-14T01:35:25;11.50;99.90
20070;DHT22;10195;50.868;4.382;2023-03-14T01:37:50;11.50;99.90
20070;DHT22;10195;50.868;4.382;2023-03-14T01:40:16;11.50;99.90
20070;DHT22;10195;50.868;4.382;2023-03-14T01:43:05;11.50;99.90
20070;DHT22;10195;50.868;4.382;2023-03-14T01:48:21;11.40;99.90
20070;DHT22;10195;50.868;4.382;2023-03-14T01:50:47;11.40;99.90
20070;DHT22;10195;50.868;4.382;2023-03-14T01:53:13;11.40;99.90
20070;DHT22;10195;50.868;4.382;2023-03-14T01:55:39;11.40;99.90
20070;DHT22;10195;50.868;4.382;2023-03-14T01:58:05;11.40;99.90
20070;DHT22;10195;50.868;4.382;2023-03-14T02:00:31;11.30;99.90
20070;DHT22;10195;50.868;4.382;2023-03-14T02:03:02;11.30;99.90
20070;DHT22;10195;50.868;4.382;2023-03-14T02:05:32;11.30;99.90
20070;DHT22;10195;50.868;4.382;2023-03-14T02:08:00;11.30;99.90
20070;DHT22;10195;50.868;4.382;2023-03-14T02:10:30;11.30;99.90
20070;DHT22;10195;50.868;4.382;2023-03-14T02:12:59;11.20;99.90
20070;DHT22;10195;50.868;4.382;2023-03-14T02:15:26;11.10;99.90
20070;DHT22;10195;50.868;4.382;2023-03-14T02:17:52;11.00;99.90
20070;DHT22;10195;50.868;4.382;2023-03-14T02:26:05;11.10;99.90
20070;DHT22;10195;50.868;4.382;2023-03-14T02:28:33;11.10;99.90
20070;DHT22;10195;50.868;4.382;2023-03-14T02:30:59;11.10;99.90
20070;DHT22;10195;50.868;4.382;2023-03-14T02:33:25;11.00;99.90
20070;DHT22;10195;50.868;4.382;2023-03-14T02:35:59;11.00;99.90
20070;DHT22;10195;50.868;4.382;2023-03-14T02:40:50;10.80;99.90
20070;DHT22;10195;50.868;4.382;2023-03-14T02:43:16;10.90;99.90
20070;DHT22;10195;50.868;4.382;2023-03-14T02:45:46;11.00;99.90
20070;DHT22;10195;50.868;4.382;2023-03-14T02:48:25;11.00;99.90
20070;DHT22;10195;50.868;4.382;2023-03-14T02:50:54;11.10;99.90
20070;DHT22;10195;50.868;4.382;2023-03-14T02:53:26;11.00;99.90
20070;DHT22;10195;50.868;4.382;2023-03-14T02:55:52;11.00;99.90
20070;DHT22;10195;50.868;4.382;2023-03-14T02:58:19;11.00;99.90
20070;DHT22;10195;50.868;4.382;2023-03-14T03:00:45;10.90;99.90
20070;DHT22;10195;50.868;4.382;2023-03-14T03:03:11;10.90;99.90
20070;DHT22;10195;50.868;4.382;2023-03-14T03:05:37;10.80;99.90
20070;DHT22;10195;50.868;4.382;2023-03-14T03:08:03;10.80;99.90
20070;DHT22;10195;50.868;4.382;2023-03-14T03:10:29;10.80;99.90
20070;DHT22;10195;50.868;4.382;2023-03-14T03:12:55;10.90;99.90
20070;DHT22;10195;50.868;4.382;2023-03-14T03:15:21;10.80;99.90
20070;DHT22;10195;50.868;4.382;2023-03-14T03:17:46;10.80;99.90
20070;DHT22;10195;50.868;4.382;2023-03-14T03:20:12;11.00;99.90
20070;DHT22;10195;50.868;4.382;2023-03-14T03:22:39;10.90;99.90
20070;DHT22;10195;50.868;4.382;2023-03-14T03:25:05;10.80;99.90
20070;DHT22;10195;50.868;4.382;2023-03-14T03:27:33;10.90;99.90
20070;DHT22;10195;50.868;4.382;2023-03-14T03:29:59;11.00;99.90
20070;DHT22;10195;50.868;4.382;2023-03-14T03:32:25;11.00;99.90
20070;DHT22;10195;50.868;4.382;2023-03-14T03:34:50;11.00;99.90
20070;DHT22;10195;50.868;4.382;2023-03-14T03:37:16;11.00;99.90
20070;DHT22;10195;50.868;4.382;2023-03-14T03:39:42;11.00;99.90
20070;DHT22;10195;50.868;4.382;2023-03-14T03:42:08;11.10;99.90
20070;DHT22;10195;50.868;4.382;2023-03-14T03:44:33;11.10;99.90
20070;DHT22;10195;50.868;4.382;2023-03-14T03:46:59;11.20;99.90
20070;DHT22;10195;50.868;4.382;2023-03-14T03:49:29;11.20;99.90
20070;DHT22;10195;50.868;4.382;2023-03-14T03:51:55;11.20;99.90
20070;DHT22;10195;50.868;4.382;2023-03-14T03:54:20;11.30;99.90
20070;DHT22;10195;50.868;4.382;2023-03-14T03:56:46;11.20;99.90
20070;DHT22;10195;50.868;4.382;2023-03-14T03:59:12;11.30;99.90
20070;DHT22;10195;50.868;4.382;2023-03-14T04:01:37;11.20;99.90
20070;DHT22;10195;50.868;4.382;2023-03-14T04:04:03;11.20;99.90
20070;DHT22;10195;50.868;4.382;2023-03-14T04:06:29;11.20;99.90
20070;DHT22;10195;50.868;4.382;2023-03-14T04:08:55;11.20;99.90
20070;DHT22;10195;50.868;4.382;2023-03-14T04:11:21;11.20;99.90
20070;DHT22;10195;50.868;4.382;2023-03-14T04:13:46;11.10;99.90
20070;DHT22;10195;50.868;4.382;2023-03-14T04:16:21;11.20;99.90
20070;DHT22;10195;50.868;4.382;2023-03-14T04:18:47;11.20;99.90
20070;DHT22;10195;50.868;4.382;2023-03-14T04:21:13;11.20;99.90
20070;DHT22;10195;50.868;4.382;2023-03-14T04:23:39;11.20;99.90
20070;DHT22;10195;50.868;4.382;2023-03-14T04:26:04;11.30;99.90
20070;DHT22;10195;50.868;4.382;2023-03-14T04:28:30;11.20;99.90
20070;DHT22;10195;50.868;4.382;2023-03-14T04:30:56;11.30;99.90
20070;DHT22;10195;50.868;4.382;2023-03-14T04:33:22;11.30;99.90
20070;DHT22;10195;50.868;4.382;2023-03-14T04:35:48;11.30;99.90
20070;DHT22;10195;50.868;4.382;2023-03-14T04:38:15;11.40;99.90
20070;DHT22;10195;50.868;4.382;2023-03-14T04:40:42;11.40;99.90
20070;DHT22;10195;50.868;4.382;2023-03-14T04:43:08;11.40;99.90
20070;DHT22;10195;50.868;4.382;2023-03-14T04:45:35;11.40;99.90
20070;DHT22;10195;50.868;4.382;2023-03-14T04:48:01;11.50;99.90
20070;DHT22;10195;50.868;4.382;2023-03-14T04:50:26;11.50;99.90
20070;DHT22;10195;50.868;4.382;2023-03-14T04:52:52;11.40;99.90
20070;DHT22;10195;50.868;4.382;2023-03-14T04:55:18;11.30;99.90
20070;DHT22;10195;50.868;4.382;2023-03-14T04:57:44;11.30;99.90
20070;DHT22;10195;50.868;4.382;2023-03-14T05:00:10;11.30;99.90
20070;DHT22;10195;50.868;4.382;2023-03-14T05:02:36;11.20;99.90
20070;DHT22;10195;50.868;4.382;2023-03-14T05:05:02;11.30;99.90
20070;DHT22;10195;50.868;4.382;2023-03-14T05:07:27;11.30;99.90
20070;DHT22;10195;50.868;4.382;2023-03-14T05:09:53;11.30;99.90
20070;DHT22;10195;50.868;4.382;2023-03-14T05:12:20;11.30;99.90
20070;DHT22;10195;50.868;4.382;2023-03-14T05:14:46;11.30;99.90
20070;DHT22;10195;50.868;4.382;2023-03-14T05:17:12;11.30;99.90
20070;DHT22;10195;50.868;4.382;2023-03-14T05:19:40;11.40;99.90
20070;DHT22;10195;50.868;4.382;2023-03-14T05:22:06;11.40;99.90
20070;DHT22;10195;50.868;4.382;2023-03-14T05:24:32;11.40;99.90
20070;DHT22;10195;50.868;4.382;2023-03-14T05:26:57;11.40;99.90
20070;DHT22;10195;50.868;4.382;2023-03-14T05:29:23;11.50;99.90
20070;DHT22;10195;50.868;4.382;2023-03-14T05:31:49;11.50;99.90
20070;DHT22;10195;50.868;4.382;2023-03-14T05:34:15;11.40;99.90
20070;DHT22;10195;50.868;4.382;2023-03-14T05:36:41;11.40;99.90
20070;DHT22;10195;50.868;4.382;2023-03-14T05:39:06;11.40;99.90
20070;DHT22;10195;50.868;4.382;2023-03-14T05:41:32;11.30;99.90
20070;DHT22;10195;50.868;4.382;2023-03-14T05:43:58;11.40;99.90
20070;DHT22;10195;50.868;4.382;2023-03-14T05:46:23;11.40;99.90
20070;DHT22;10195;50.868;4.382;2023-03-14T05:48:49;11.40;99.90
20070;DHT22;10195;50.868;4.382;2023-03-14T05:51:15;11.30;99.90
20070;DHT22;10195;50.868;4.382;2023-03-14T05:53:40;11.30;99.90
20070;DHT22;10195;50.868;4.382;2023-03-14T05:56:06;11.40;99.90
20070;DHT22;10195;50.868;4.382;2023-03-14T05:58:32;11.40;99.90
20070;DHT22;10195;50.868;4.382;2023-03-14T06:01:02;11.30;99.90
20070;DHT22;10195;50.868;4.382;2023-03-14T06:03:27;11.50;99.90
20070;DHT22;10195;50.868;4.382;2023-03-14T06:05:53;11.40;99.90
20070;DHT22;10195;50.868;4.382;2023-03-14T06:08:19;11.50;99.90
20070;DHT22;10195;50.868;4.382;2023-03-14T06:10:44;11.50;99.90
20070;DHT22;10195;50.868;4.382;2023-03-14T06:13:10;11.40;99.90
20070;DHT22;10195;50.868;4.382;2023-03-14T06:15:36;11.50;99.90
20070;DHT22;10195;50.868;4.382;2023-03-14T06:18:02;11.50;99.90
20070;DHT22;10195;50.868;4.382;2023-03-14T06:20:28;11.40;99.90
20070;DHT22;10195;50.868;4.382;2023-03-14T06:22:53;11.40;99.90
20070;DHT22;10195;50.868;4.382;2023-03-14T06:25:19;11.40;99.90
20070;DHT22;10195;50.868;4.382;2023-03-14T06:27:45;11.40;99.90
20070;DHT22;10195;50.868;4.382;2023-03-14T06:30:11;11.40;99.90
20070;DHT22;10195;50.868;4.382;2023-03-14T06:32:36;11.30;99.90
20070;DHT22;10195;50.868;4.382;2023-03-14T06:35:02;11.30;99.90
20070;DHT22;10195;50.868;4.382;2023-03-14T06:37:28;11.20;99.90
20070;DHT22;10195;50.868;4.382;2023-03-14T06:39:54;11.40;99.90
20070;DHT22;10195;50.868;4.382;2023-03-14T06:42:20;11.30;99.90
20070;DHT22;10195;50.868;4.382;2023-03-14T06:44:46;11.40;99.90
20070;DHT22;10195;50.868;4.382;2023-03-14T06:47:12;11.30;99.90
20070;DHT22;10195;50.868;4.382;2023-03-14T06:49:37;11.30;99.90
20070;DHT22;10195;50.868;4.382;2023-03-14T06:52:03;10.70;99.90
20070;DHT22;10195;50.868;4.382;2023-03-14T06:54:29;10.40;99.90
20070;DHT22;10195;50.868;4.382;2023-03-14T06:56:55;10.20;99.90
20070;DHT22;10195;50.868;4.382;2023-03-14T06:59:20;10.00;99.90
20070;DHT22;10195;50.868;4.382;2023-03-14T07:01:46;9.70;99.90
20070;DHT22;10195;50.868;4.382;2023-03-14T07:04:13;9.40;99.90
20070;DHT22;10195;50.868;4.382;2023-03-14T07:06:39;9.30;99.90
20070;DHT22;10195;50.868;4.382;2023-03-14T07:09:05;9.10;99.90
20070;DHT22;10195;50.868;4.382;2023-03-14T07:11:31;9.00;99.90
20070;DHT22;10195;50.868;4.382;2023-03-14T07:13:57;9.00;99.90
20070;DHT22;10195;50.868;4.382;2023-03-14T07:16:23;8.90;99.90
20070;DHT22;10195;50.868;4.382;2023-03-14T07:18:48;8.60;99.90
20070;DHT22;10195;50.868;4.382;2023-03-14T07:21:14;8.50;99.90
20070;DHT22;10195;50.868;4.382;2023-03-14T07:23:40;8.40;99.90
20070;DHT22;10195;50.868;4.382;2023-03-14T07:26:06;8.40;99.90
20070;DHT22;10195;50.868;4.382;2023-03-14T07:28:32;8.30;99.90
20070;DHT22;10195;50.868;4.382;2023-03-14T07:30:58;8.30;99.90
20070;DHT22;10195;50.868;4.382;2023-03-14T07:33:24;8.30;99.90
20070;DHT22;10195;50.868;4.382;2023-03-14T07:35:50;8.30;99.90
20070;DHT22;10195;50.868;4.382;2023-03-14T07:38:16;8.40;99.90
20070;DHT22;10195;50.868;4.382;2023-03-14T07:40:42;8.40;99.90
20070;DHT22;10195;50.868;4.382;2023-03-14T07:43:07;8.30;99.90
20070;DHT22;10195;50.868;4.382;2023-03-14T07:45:33;8.40;99.90
20070;DHT22;10195;50.868;4.382;2023-03-14T07:47:59;8.50;99.90
20070;DHT22;10195;50.868;4.382;2023-03-14T07:50:25;8.60;99.90
20070;DHT22;10195;50.868;4.382;2023-03-14T07:52:51;8.50;99.90
20070;DHT22;10195;50.868;4.382;2023-03-14T07:55:17;8.60;99.90
20070;DHT22;10195;50.868;4.382;2023-03-14T07:57:43;8.40;99.90
20070;DHT22;10195;50.868;4.382;2023-03-14T08:00:09;8.40;99.90
20070;DHT22;10195;50.868;4.382;2023-03-14T08:02:35;8.50;99.90
20070;DHT22;10195;50.868;4.382;2023-03-14T08:05:02;8.50;99.90
20070;DHT22;10195;50.868;4.382;2023-03-14T08:07:29;8.40;99.90
20070;DHT22;10195;50.868;4.382;2023-03-14T08:09:55;8.50;99.90
20070;DHT22;10195;50.868;4.382;2023-03-14T08:12:20;8.40;99.90
20070;DHT22;10195;50.868;4.382;2023-03-14T08:14:46;8.40;99.90
20070;DHT22;10195;50.868;4.382;2023-03-14T08:17:12;8.40;99.90
20070;DHT22;10195;50.868;4.382;2023-03-14T08:19:38;8.50;99.90
20070;DHT22;10195;50.868;4.382;2023-03-14T08:22:04;8.50;99.90
20070;DHT22;10195;50.868;4.382;2023-03-14T08:24:30;8.50;99.90
20070;DHT22;10195;50.868;4.382;2023-03-14T08:26:55;8.60;99.90
20070;DHT22;10195;50.868;4.382;2023-03-14T08:29:21;8.50;99.90
20070;DHT22;10195;50.868;4.382;2023-03-14T08:31:46;8.50;99.90
20070;DHT22;10195;50.868;4.382;2023-03-14T08:34:14;8.70;99.90
20070;DHT22;10195;50.868;4.382;2023-03-14T08:36:40;8.70;99.90
20070;DHT22;10195;50.868;4.382;2023-03-14T08:39:06;8.60;99.90
20070;DHT22;10195;50.868;4.382;2023-03-14T08:41:33;8.60;99.90
20070;DHT22;10195;50.868;4.382;2023-03-14T08:43:58;8.40;99.90
20070;DHT22;10195;50.868;4.382;2023-03-14T08:46:24;8.20;99.90
20070;DHT22;10195;50.868;4.382;2023-03-14T08:48:50;8.20;99.90
20070;DHT22;10195;50.868;4.382;2023-03-14T08:51:15;8.20;99.90
20070;DHT22;10195;50.868;4.382;2023-03-14T08:53:42;8.10;99.90
20070;DHT22;10195;50.868;4.382;2023-03-14T08:56:08;8.10;99.90
20070;DHT22;10195;50.868;4.382;2023-03-14T08:58:36;8.00;99.90
20070;DHT22;10195;50.868;4.382;2023-03-14T09:01:07;8.00;99.90
20070;DHT22;10195;50.868;4.382;2023-03-14T09:03:33;8.00;99.90
20070;DHT22;10195;50.868;4.382;2023-03-14T09:06:04;8.10;99.90
20070;DHT22;10195;50.868;4.382;2023-03-14T09:08:30;7.90;99.90
20070;DHT22;10195;50.868;4.382;2023-03-14T09:10:55;7.90;99.90
20070;DHT22;10195;50.868;4.382;2023-03-14T09:13:21;7.90;99.90
20070;DHT22;10195;50.868;4.382;2023-03-14T09:15:55;7.90;99.90
20070;DHT22;10195;50.868;4.382;2023-03-14T09:18:21;7.80;99.90
20070;DHT22;10195;50.868;4.382;2023-03-14T09:20:48;7.80;99.90
20070;DHT22;10195;50.868;4.382;2023-03-14T09:23:14;7.70;99.90
20070;DHT22;10195;50.868;4.382;2023-03-14T09:25:39;7.80;99.90
20070;DHT22;10195;50.868;4.382;2023-03-14T09:28:05;7.70;99.90
20070;DHT22;10195;50.868;4.382;2023-03-14T09:30:31;7.70;99.90
20070;DHT22;10195;50.868;4.382;2023-03-14T09:32:57;7.80;99.90
20070;DHT22;10195;50.868;4.382;2023-03-14T09:35:23;7.80;99.90
20070;DHT22;10195;50.868;4.382;2023-03-14T09:37:49;7.70;99.90
20070;DHT22;10195;50.868;4.382;2023-03-14T09:40:19;7.80;99.90
20070;DHT22;10195;50.868;4.382;2023-03-14T09:42:47;7.80;99.90
20070;DHT22;10195;50.868;4.382;2023-03-14T09:47:54;7.90;99.90
20070;DHT22;10195;50.868;4.382;2023-03-14T09:50:21;8.00;99.90
20070;DHT22;10195;50.868;4.382;2023-03-14T09:52:51;7.90;99.90
20070;DHT22;10195;50.868;4.382;2023-03-14T09:55:22;7.90;99.90
20070;DHT22;10195;50.868;4.382;2023-03-14T09:57:50;7.90;99.90
20070;DHT22;10195;50.868;4.382;2023-03-14T10:00:23;8.00;99.90
20070;DHT22;10195;50.868;4.382;2023-03-14T10:05:37;7.90;99.90
20070;DHT22;10195;50.868;4.382;2023-03-14T10:08:03;8.00;99.90
20070;DHT22;10195;50.868;4.382;2023-03-14T10:10:30;8.20;99.90
20070;DHT22;10195;50.868;4.382;2023-03-14T10:13:25;8.30;99.90
20070;DHT22;10195;50.868;4.382;2023-03-14T10:15:55;8.30;99.90
20070;DHT22;10195;50.868;4.382;2023-03-14T10:18:22;8.30;99.90
20070;DHT22;10195;50.868;4.382;2023-03-14T10:20:57;8.30;99.90
20070;DHT22;10195;50.868;4.382;2023-03-14T10:23:29;8.10;99.90
20070;DHT22;10195;50.868;4.382;2023-03-14T10:26:06;8.00;99.90
20070;DHT22;10195;50.868;4.382;2023-03-14T10:28:43;8.00;99.90
20070;DHT22;10195;50.868;4.382;2023-03-14T10:31:09;8.00;99.90
20070;DHT22;10195;50.868;4.382;2023-03-14T10:33:36;7.90;99.90
20070;DHT22;10195;50.868;4.382;2023-03-14T10:36:06;7.70;99.90
20070;DHT22;10195;50.868;4.382;2023-03-14T10:38:40;7.60;99.90
20070;DHT22;10195;50.868;4.382;2023-03-14T10:41:25;7.70;99.90
20070;DHT22;10195;50.868;4.382;2023-03-14T10:43:54;7.70;99.90
20070;DHT22;10195;50.868;4.382;2023-03-14T10:46:24;7.60;99.90
20070;DHT22;10195;50.868;4.382;2023-03-14T10:48:52;7.60;99.90
20070;DHT22;10195;50.868;4.382;2023-03-14T10:51:19;7.70;99.90
20070;DHT22;10195;50.868;4.382;2023-03-14T10:54:02;7.50;99.90
20070;DHT22;10195;50.868;4.382;2023-03-14T10:56:34;7.60;99.90
20070;DHT22;10195;50.868;4.382;2023-03-14T10:59:02;7.50;99.90
20070;DHT22;10195;50.868;4.382;2023-03-14T11:07:09;7.60;99.90
20070;DHT22;10195;50.868;4.382;2023-03-14T11:15:37;7.50;99.90
20070;DHT22;10195;50.868;4.382;2023-03-14T11:20:59;7.40;99.90
20070;DHT22;10195;50.868;4.382;2023-03-14T11:26:36;6.90;99.90
20070;DHT22;10195;50.868;4.382;2023-03-14T11:31:35;7.10;99.90
20070;DHT22;10195;50.868;4.382;2023-03-14T11:36:41;7.10;99.90
20070;DHT22;10195;50.868;4.382;2023-03-14T11:39:14;7.00;99.90
20070;DHT22;10195;50.868;4.382;2023-03-14T11:41:43;7.10;99.90
20070;DHT22;10195;50.868;4.382;2023-03-14T11:44:30;7.20;99.90
20070;DHT22;10195;50.868;4.382;2023-03-14T11:47:17;7.30;99.90
20070;DHT22;10195;50.868;4.382;2023-03-14T11:52:33;7.20;99.90
20070;DHT22;10195;50.868;4.382;2023-03-14T11:55:26;7.20;99.90
20070;DHT22;10195;50.868;4.382;2023-03-14T11:57:56;7.20;99.90
20070;DHT22;10195;50.868;4.382;2023-03-14T12:00:24;7.10;99.90
20070;DHT22;10195;50.868;4.382;2023-03-14T12:08:30;7.40;99.90
20070;DHT22;10195;50.868;4.382;2023-03-14T12:11:09;7.40;99.90
20070;DHT22;10195;50.868;4.382;2023-03-14T12:13:38;7.50;99.90
20070;DHT22;10195;50.868;4.382;2023-03-14T12:16:06;7.70;99.90
20070;DHT22;10195;50.868;4.382;2023-03-14T12:18:35;7.80;99.90
20070;DHT22;10195;50.868;4.382;2023-03-14T12:21:06;7.90;99.90
20070;DHT22;10195;50.868;4.382;2023-03-14T12:23:52;7.90;99.90
20070;DHT22;10195;50.868;4.382;2023-03-14T12:26:27;7.90;99.90
20070;DHT22;10195;50.868;4.382;2023-03-14T12:29:16;7.80;99.90
20070;DHT22;10195;50.868;4.382;2023-03-14T12:35:30;7.60;99.90
20070;DHT22;10195;50.868;4.382;2023-03-14T12:37:53;7.40;99.90
20070;DHT22;10195;50.868;4.382;2023-03-14T12:40:31;7.40;99.90
20070;DHT22;10195;50.868;4.382;2023-03-14T12:43:01;7.30;99.90
20070;DHT22;10195;50.868;4.382;2023-03-14T12:45:34;7.30;99.90
20070;DHT22;10195;50.868;4.382;2023-03-14T12:51:02;7.10;99.90
20070;DHT22;10195;50.868;4.382;2023-03-14T13:01:53;7.40;99.90
20070;DHT22;10195;50.868;4.382;2023-03-14T13:04:19;7.50;99.90
20070;DHT22;10195;50.868;4.382;2023-03-14T13:06:52;7.60;99.90
20070;DHT22;10195;50.868;4.382;2023-03-14T13:09:34;7.70;99.90
20070;DHT22;10195;50.868;4.382;2023-03-14T13:12:02;7.80;99.90
20070;DHT22;10195;50.868;4.382;2023-03-14T13:14:30;7.80;99.90
20070;DHT22;10195;50.868;4.382;2023-03-14T13:16:59;7.90;99.90
20070;DHT22;10195;50.868;4.382;2023-03-14T13:19:28;7.90;99.90
20070;DHT22;10195;50.868;4.382;2023-03-14T13:22:27;8.00;99.90
20070;DHT22;10195;50.868;4.382;2023-03-14T13:25:02;7.90;99.90
20070;DHT22;10195;50.868;4.382;2023-03-14T13:27:31;7.70;99.90
20070;DHT22;10195;50.868;4.382;2023-03-14T13:29:57;7.60;99.90
20070;DHT22;10195;50.868;4.382;2023-03-14T13:32:28;7.40;99.90
20070;DHT22;10195;50.868;4.382;2023-03-14T13:34:58;7.60;99.90
20070;DHT22;10195;50.868;4.382;2023-03-14T13:37:25;7.70;99.90
20070;DHT22;10195;50.868;4.382;2023-03-14T13:39:53;7.80;99.90
20070;DHT22;10195;50.868;4.382;2023-03-14T13:42:21;8.00;99.90
20070;DHT22;10195;50.868;4.382;2023-03-14T13:44:51;8.00;99.90
20070;DHT22;10195;50.868;4.382;2023-03-14T13:47:20;7.90;99.90
20070;DHT22;10195;50.868;4.382;2023-03-14T13:49:47;8.00;99.90
20070;DHT22;10195;50.868;4.382;2023-03-14T13:55:17;8.20;99.90
20070;DHT22;10195;50.868;4.382;2023-03-14T13:57:49;8.40;99.90
20070;DHT22;10195;50.868;4.382;2023-03-14T14:00:24;8.60;99.90
20070;DHT22;10195;50.868;4.382;2023-03-14T14:02:58;8.70;99.90
20070;DHT22;10195;50.868;4.382;2023-03-14T14:05:29;8.50;99.90
20070;DHT22;10195;50.868;4.382;2023-03-14T14:07:55;8.50;99.90
20070;DHT22;10195;50.868;4.382;2023-03-14T14:10:22;8.40;99.90
20070;DHT22;10195;50.868;4.382;2023-03-14T14:13:03;8.50;99.90
20070;DHT22;10195;50.868;4.382;2023-03-14T14:15:39;8.50;99.90
20070;DHT22;10195;50.868;4.382;2023-03-14T14:18:09;8.30;99.90
20070;DHT22;10195;50.868;4.382;2023-03-14T14:20:40;8.30;99.90
20070;DHT22;10195;50.868;4.382;2023-03-14T14:23:10;8.40;99.90
20070;DHT22;10195;50.868;4.382;2023-03-14T14:25:37;8.20;99.90
20070;DHT22;10195;50.868;4.382;2023-03-14T14:28:57;7.90;99.90
20070;DHT22;10195;50.868;4.382;2023-03-14T14:34:01;7.70;99.90
20070;DHT22;10195;50.868;4.382;2023-03-14T14:36:39;7.70;99.90
20070;DHT22;10195;50.868;4.382;2023-03-14T14:39:10;7.70;99.90
20070;DHT22;10195;50.868;4.382;2023-03-14T14:41:40;7.70;99.90
20070;DHT22;10195;50.868;4.382;2023-03-14T14:44:07;7.60;99.90
20070;DHT22;10195;50.868;4.382;2023-03-14T14:46:36;7.50;99.90
20070;DHT22;10195;50.868;4.382;2023-03-14T14:49:06;7.40;99.90
20070;DHT22;10195;50.868;4.382;2023-03-14T14:52:21;7.20;99.90
20070;DHT22;10195;50.868;4.382;2023-03-14T14:54:37;6.90;99.90
20070;DHT22;10195;50.868;4.382;2023-03-14T14:57:06;6.60;99.90
20070;DHT22;10195;50.868;4.382;2023-03-14T14:59:44;6.20;99.90
20070;DHT22;10195;50.868;4.382;2023-03-14T15:02:33;6.10;99.90
20070;DHT22;10195;50.868;4.382;2023-03-14T15:05:01;6.20;99.90
20070;DHT22;10195;50.868;4.382;2023-03-14T15:07:26;6.20;99.90
20070;DHT22;10195;50.868;4.382;2023-03-14T15:09:52;6.40;99.90
20070;DHT22;10195;50.868;4.382;2023-03-14T15:12:18;6.70;99.90
20070;DHT22;10195;50.868;4.382;2023-03-14T15:14:43;7.00;99.90
20070;DHT22;10195;50.868;4.382;2023-03-14T15:17:10;7.10;99.90
20070;DHT22;10195;50.868;4.382;2023-03-14T15:19:37;7.30;99.90
20070;DHT22;10195;50.868;4.382;2023-03-14T15:22:03;7.30;99.90
20070;DHT22;10195;50.868;4.382;2023-03-14T15:24:28;7.40;99.90
20070;DHT22;10195;50.868;4.382;2023-03-14T15:26:54;7.60;99.90
20070;DHT22;10195;50.868;4.382;2023-03-14T15:29:20;7.80;99.90
20070;DHT22;10195;50.868;4.382;2023-03-14T15:31:45;8.10;99.90
20070;DHT22;10195;50.868;4.382;2023-03-14T15:34:11;7.90;99.90
20070;DHT22;10195;50.868;4.382;2023-03-14T15:36:37;8.00;99.90
20070;DHT22;10195;50.868;4.382;2023-03-14T15:39:04;8.00;99.90
20070;DHT22;10195;50.868;4.382;2023-03-14T15:41:31;8.10;99.90
20070;DHT22;10195;50.868;4.382;2023-03-14T15:43:57;8.20;99.90
20070;DHT22;10195;50.868;4.382;2023-03-14T15:46:23;8.30;99.90
20070;DHT22;10195;50.868;4.382;2023-03-14T15:48:50;8.30;99.90
20070;DHT22;10195;50.868;4.382;2023-03-14T15:51:16;8.30;99.90
20070;DHT22;10195;50.868;4.382;2023-03-14T15:53:42;8.40;99.90
20070;DHT22;10195;50.868;4.382;2023-03-14T15:56:17;8.30;99.90
20070;DHT22;10195;50.868;4.382;2023-03-14T15:58:43;8.00;99.90
20070;DHT22;10195;50.868;4.382;2023-03-14T16:01:12;7.80;99.90
20070;DHT22;10195;50.868;4.382;2023-03-14T16:03:38;7.70;99.90
20070;DHT22;10195;50.868;4.382;2023-03-14T16:06:04;7.60;99.90
20070;DHT22;10195;50.868;4.382;2023-03-14T16:08:30;7.60;99.90
20070;DHT22;10195;50.868;4.382;2023-03-14T16:10:58;7.70;99.90
20070;DHT22;10195;50.868;4.382;2023-03-14T16:13:24;7.70;99.90
20070;DHT22;10195;50.868;4.382;2023-03-14T16:15:54;7.70;99.90
20070;DHT22;10195;50.868;4.382;2023-03-14T16:18:19;7.60;99.90
20070;DHT22;10195;50.868;4.382;2023-03-14T16:20:54;7.60;99.90
20070;DHT22;10195;50.868;4.382;2023-03-14T16:23:21;7.60;99.90
20070;DHT22;10195;50.868;4.382;2023-03-14T16:25:48;7.60;99.90
20070;DHT22;10195;50.868;4.382;2023-03-14T16:28:14;7.50;99.90
20070;DHT22;10195;50.868;4.382;2023-03-14T16:30:40;7.40;99.90
20070;DHT22;10195;50.868;4.382;2023-03-14T16:33:05;7.40;99.90
20070;DHT22;10195;50.868;4.382;2023-03-14T16:35:35;7.40;99.90
20070;DHT22;10195;50.868;4.382;2023-03-14T16:38:00;7.40;99.90
20070;DHT22;10195;50.868;4.382;2023-03-14T16:40:26;7.30;99.90
20070;DHT22;10195;50.868;4.382;2023-03-14T16:42:52;7.40;99.90
20070;DHT22;10195;50.868;4.382;2023-03-14T16:45:19;7.50;99.90
20070;DHT22;10195;50.868;4.382;2023-03-14T16:47:44;7.50;99.90
20070;DHT22;10195;50.868;4.382;2023-03-14T16:50:10;7.50;99.90
20070;DHT22;10195;50.868;4.382;2023-03-14T16:52:36;7.40;99.90
20070;DHT22;10195;50.868;4.382;2023-03-14T16:55:01;7.50;99.90